createdAt,value
2019-03-10T00:00:31.333Z,2.90
2019-03-10T00:02:59.916Z,2.60
2019-03-10T00:05:28.519Z,2.67
2019-03-10T00:07:58.839Z,2.35
2019-03-10T00:10:27.414Z,2.50
2019-03-10T00:12:56.000Z,2.60
2019-03-10T00:15:24.616Z,2.62
2019-03-10T00:17:53.244Z,3.05
2019-03-10T00:20:21.894Z,3.15
2019-03-10T00:22:50.407Z,2.85
2019-03-10T00:25:19.064Z,2.87
2019-03-10T00:27:47.686Z,2.83
2019-03-10T00:30:18.387Z,2.83
2019-03-10T00:32:46.944Z,3.33
2019-03-10T00:35:15.573Z,2.80
2019-03-10T00:37:44.214Z,3.35
2019-03-10T00:40:49.189Z,3.08
2019-03-10T00:43:29.491Z,3.35
2019-03-10T00:46:01.015Z,2.80
2019-03-10T00:48:52.172Z,2.75
2019-03-10T00:54:21.435Z,3.60
2019-03-10T00:56:49.977Z,3.05
2019-03-10T00:59:18.618Z,3.02
2019-03-10T01:01:47.121Z,3.42
2019-03-10T01:04:15.692Z,4.05
2019-03-10T01:06:44.256Z,3.45
2019-03-10T01:09:12.878Z,3.25
2019-03-10T01:11:41.695Z,3.35
2019-03-10T01:14:10.174Z,3.30
2019-03-10T01:16:39.088Z,3.70
2019-03-10T01:19:07.594Z,3.20
2019-03-10T01:21:38.016Z,3.72
2019-03-10T01:24:06.527Z,3.52
2019-03-10T01:26:35.071Z,3.40
2019-03-10T01:29:03.714Z,3.50
2019-03-10T01:31:35.228Z,4.75
2019-03-10T01:34:25.981Z,3.87
2019-03-10T01:36:54.448Z,4.60
2019-03-10T01:39:24.493Z,4.53
2019-03-10T01:41:52.984Z,3.87
2019-03-10T01:44:21.467Z,3.90
2019-03-10T01:46:49.981Z,3.77
2019-03-10T01:49:18.445Z,4.15
2019-03-10T01:51:46.991Z,4.15
2019-03-10T01:54:15.602Z,3.47
2019-03-10T01:56:44.215Z,3.65
2019-03-10T01:59:12.772Z,3.92
2019-03-10T02:01:41.327Z,3.42
2019-03-10T02:04:09.807Z,3.25
2019-03-10T02:06:38.290Z,5.00
2019-03-10T02:09:07.232Z,3.72
2019-03-10T02:11:35.737Z,3.80
2019-03-10T02:14:04.277Z,3.35
2019-03-10T02:16:32.799Z,4.05
2019-03-10T02:19:01.287Z,3.72
2019-03-10T02:21:29.855Z,3.50
2019-03-10T02:23:58.306Z,3.90
2019-03-10T02:26:26.827Z,3.77
2019-03-10T02:28:55.294Z,3.40
2019-03-10T02:31:23.805Z,3.17
2019-03-10T02:33:52.358Z,3.50
2019-03-10T02:36:20.854Z,3.22
2019-03-10T02:38:49.401Z,4.00
2019-03-10T02:41:17.883Z,3.60
2019-03-10T02:43:46.337Z,3.22
2019-03-10T02:46:14.903Z,3.50
2019-03-10T02:48:43.358Z,3.20
2019-03-10T02:51:11.839Z,3.25
2019-03-10T02:53:40.360Z,2.72
2019-03-10T02:56:08.852Z,3.72
2019-03-10T02:58:37.319Z,3.47
2019-03-10T03:01:07.155Z,3.70
2019-03-10T03:03:37.354Z,2.98
2019-03-10T03:06:09.102Z,2.45
2019-03-10T03:08:37.592Z,3.37
2019-03-10T03:11:06.145Z,2.72
2019-03-10T03:13:34.671Z,2.58
2019-03-10T03:16:03.122Z,2.52
2019-03-10T03:18:31.614Z,3.65
2019-03-10T03:21:00.393Z,2.58
2019-03-10T03:23:28.864Z,3.05
2019-03-10T03:25:57.363Z,2.45
2019-03-10T03:28:25.818Z,2.58
2019-03-10T03:30:54.488Z,2.33
2019-03-10T03:33:22.995Z,3.17
2019-03-10T03:35:59.356Z,3.05
2019-03-10T03:38:33.923Z,2.55
2019-03-10T03:43:31.811Z,2.40
2019-03-10T03:46:00.281Z,2.77
2019-03-10T03:48:28.865Z,3.05
2019-03-10T03:50:57.679Z,2.72
2019-03-10T03:54:26.824Z,2.50
2019-03-10T03:56:55.327Z,3.05
2019-03-10T03:59:23.799Z,2.52
2019-03-10T04:01:56.775Z,2.70
2019-03-10T04:04:25.244Z,2.87
2019-03-10T04:06:53.753Z,3.22
2019-03-10T04:09:22.282Z,2.85
2019-03-10T04:11:50.751Z,3.12
2019-03-10T04:14:19.293Z,3.50
2019-03-10T04:16:47.781Z,3.40
2019-03-10T04:19:16.277Z,3.02
2019-03-10T04:21:44.775Z,2.60
2019-03-10T04:24:13.216Z,3.45
2019-03-10T04:26:43.233Z,3.55
2019-03-10T04:29:11.754Z,3.10
2019-03-10T04:31:40.288Z,3.30
2019-03-10T04:34:08.791Z,3.20
2019-03-10T04:36:37.292Z,3.12
2019-03-10T04:39:06.718Z,3.10
2019-03-10T04:41:35.280Z,3.50
2019-03-10T04:44:03.756Z,2.77
2019-03-10T04:46:32.232Z,2.85
2019-03-10T04:49:00.722Z,3.80
2019-03-10T04:51:32.599Z,3.62
2019-03-10T04:54:01.171Z,3.27
2019-03-10T04:56:34.458Z,3.92
2019-03-10T04:59:11.944Z,3.45
2019-03-10T05:01:40.426Z,3.70
2019-03-10T05:04:08.956Z,3.20
2019-03-10T05:06:37.436Z,2.95
2019-03-10T05:09:08.153Z,2.70
2019-03-10T05:11:38.252Z,3.77
2019-03-10T05:14:06.735Z,2.58
2019-03-10T05:16:35.259Z,3.00
2019-03-10T05:19:03.763Z,2.90
2019-03-10T05:21:32.234Z,2.75
2019-03-10T05:24:03.681Z,3.40
2019-03-10T05:26:32.193Z,3.47
2019-03-10T05:29:00.722Z,4.70
2019-03-10T05:31:32.193Z,3.98
2019-03-10T05:34:00.676Z,3.77
2019-03-10T05:36:29.161Z,4.03
2019-03-10T05:38:57.647Z,4.33
2019-03-10T05:41:26.200Z,4.10
2019-03-10T05:43:54.685Z,4.00
2019-03-10T05:46:23.166Z,3.55
2019-03-10T05:48:51.670Z,4.20
2019-03-10T05:51:20.220Z,3.30
2019-03-10T05:53:48.682Z,4.37
2019-03-10T05:56:17.164Z,3.72
2019-03-10T05:58:45.656Z,4.22
2019-03-10T06:01:14.169Z,3.47
2019-03-10T06:03:42.632Z,3.55
2019-03-10T06:06:11.286Z,4.17
2019-03-10T06:08:39.758Z,3.98
2019-03-10T06:11:08.367Z,4.50
2019-03-10T06:13:37.577Z,4.00
2019-03-10T06:16:06.187Z,3.67
2019-03-10T06:18:34.669Z,3.92
2019-03-10T06:21:03.252Z,3.47
2019-03-10T06:23:31.725Z,3.80
2019-03-10T06:26:00.299Z,3.25
2019-03-10T06:28:28.787Z,3.25
2019-03-10T06:30:57.278Z,3.92
2019-03-10T06:33:25.757Z,3.37
2019-03-10T06:35:54.239Z,3.25
2019-03-10T06:38:22.767Z,4.10
2019-03-10T06:40:54.192Z,3.65
2019-03-10T06:43:24.964Z,3.85
2019-03-10T06:45:53.436Z,3.77
2019-03-10T06:48:21.934Z,3.90
2019-03-10T06:50:51.929Z,3.58
2019-03-10T06:53:22.947Z,3.72
2019-03-10T06:55:51.414Z,4.17
2019-03-10T06:58:19.918Z,4.25
2019-03-10T07:00:48.374Z,5.05
2019-03-10T07:03:17.339Z,4.33
2019-03-10T07:05:45.836Z,3.95
2019-03-10T07:08:14.327Z,4.15
2019-03-10T07:10:42.877Z,3.80
2019-03-10T07:13:11.358Z,3.75
2019-03-10T07:15:40.185Z,4.55
2019-03-10T07:18:08.673Z,3.83
2019-03-10T07:20:37.213Z,4.17
2019-03-10T07:23:07.345Z,3.80
2019-03-10T07:25:36.215Z,3.67
2019-03-10T07:28:10.744Z,4.40
2019-03-10T07:30:55.931Z,3.27
2019-03-10T07:33:44.060Z,3.50
2019-03-10T07:36:14.319Z,3.30
2019-03-10T07:38:44.449Z,3.50
2019-03-10T07:41:29.306Z,3.08
2019-03-10T07:44:05.371Z,3.52
2019-03-10T07:46:53.581Z,3.67
2019-03-10T07:49:29.563Z,3.45
2019-03-10T07:52:20.146Z,3.83
2019-03-10T07:54:56.263Z,3.30
2019-03-10T07:57:42.525Z,3.47
2019-03-10T08:00:18.877Z,3.50
2019-03-10T08:02:50.458Z,3.30
2019-03-10T08:05:22.186Z,3.35
2019-03-10T08:07:58.160Z,3.60
2019-03-10T08:10:34.167Z,3.10
2019-03-10T08:13:04.298Z,4.25
2019-03-10T08:15:50.622Z,3.42
2019-03-10T08:18:23.370Z,3.65
2019-03-10T08:21:05.483Z,3.58
2019-03-10T08:23:40.916Z,3.10
2019-03-10T08:26:13.935Z,3.72
2019-03-10T08:33:18.096Z,3.33
2019-03-10T08:46:05.708Z,3.50
2019-03-10T08:48:37.349Z,3.22
2019-03-10T08:51:31.459Z,3.60
2019-03-10T08:57:53.653Z,3.20
2019-03-10T09:01:02.066Z,3.45
2019-03-10T09:04:08.112Z,3.77
2019-03-10T09:07:12.029Z,4.00
2019-03-10T09:13:11.566Z,3.30
2019-03-10T09:16:01.337Z,3.65
2019-03-10T09:27:58.453Z,4.12
2019-03-10T09:30:34.526Z,4.60
2019-03-10T09:33:07.883Z,4.78
2019-03-10T09:35:54.237Z,4.92
2019-03-10T09:38:27.332Z,4.50
2019-03-10T09:41:03.067Z,4.62
2019-03-10T09:43:49.487Z,4.90
2019-03-10T09:46:24.142Z,4.50
2019-03-10T09:48:57.131Z,4.72
2019-03-10T09:51:30.085Z,4.50
2019-03-10T09:54:09.011Z,3.80
2019-03-10T09:56:47.844Z,4.47
2019-03-10T09:59:19.020Z,4.03
2019-03-10T10:01:53.278Z,4.15
2019-03-10T10:04:23.495Z,4.22
2019-03-10T10:07:05.341Z,4.00
2019-03-10T10:09:35.476Z,3.60
2019-03-10T10:12:20.823Z,4.40
2019-03-10T10:15:21.236Z,4.70
2019-03-10T10:17:54.191Z,4.87
2019-03-10T10:20:33.525Z,4.40
2019-03-10T10:23:04.354Z,4.08
2019-03-10T10:25:43.225Z,4.60
2019-03-10T10:28:18.139Z,4.55
2019-03-10T10:31:00.177Z,3.33
2019-03-10T10:33:46.848Z,4.45
2019-03-10T10:36:17.371Z,4.10
2019-03-10T10:38:50.327Z,5.00
2019-03-10T10:41:20.483Z,4.70
2019-03-10T10:43:53.480Z,4.80
2019-03-10T10:46:39.663Z,4.00
2019-03-10T10:49:11.975Z,4.35
2019-03-10T10:52:00.272Z,3.90
2019-03-10T10:54:32.961Z,5.08
2019-03-10T10:57:03.154Z,4.90
2019-03-10T10:59:39.230Z,4.53
2019-03-10T11:02:12.336Z,4.42
2019-03-10T11:04:48.385Z,4.75
2019-03-10T11:07:33.663Z,4.78
2019-03-10T11:10:12.876Z,4.40
2019-03-10T11:12:55.263Z,4.35
2019-03-10T11:15:25.601Z,4.70
2019-03-10T11:18:08.516Z,4.95
2019-03-10T11:20:32.732Z,4.92
2019-03-10T11:23:22.909Z,4.22
2019-03-10T11:25:58.898Z,4.47
2019-03-10T11:28:28.998Z,4.53
2019-03-10T11:31:01.791Z,4.78
2019-03-10T11:33:47.958Z,5.45
2019-03-10T11:36:18.090Z,5.08
2019-03-10T11:39:04.464Z,4.80
2019-03-10T11:41:48.100Z,4.55
2019-03-10T11:44:33.696Z,4.50
2019-03-10T11:47:06.556Z,3.75
2019-03-10T11:49:36.672Z,4.70
2019-03-10T11:52:19.044Z,4.42
2019-03-10T11:54:54.954Z,4.55
2019-03-10T11:57:41.285Z,4.90
2019-03-10T12:00:14.503Z,5.15
2019-03-10T12:03:01.116Z,4.78
2019-03-10T12:05:37.239Z,4.55
2019-03-10T12:08:07.454Z,4.90
2019-03-10T12:10:37.877Z,4.80
2019-03-10T12:13:06.889Z,4.85
2019-03-10T12:15:40.818Z,4.55
2019-03-10T12:18:09.288Z,4.87
2019-03-10T12:20:37.844Z,4.80
2019-03-10T12:23:06.307Z,3.85
2019-03-10T12:25:39.895Z,4.67
2019-03-10T12:28:08.646Z,4.00
2019-03-10T12:30:40.124Z,4.20
2019-03-10T12:33:11.558Z,4.50
2019-03-10T12:49:28.464Z,3.70
2019-03-10T12:51:57.116Z,3.67
2019-03-10T12:54:25.559Z,3.92
2019-03-10T12:56:58.614Z,3.25
2019-03-10T12:59:27.068Z,2.83
2019-03-10T13:01:55.569Z,2.80
2019-03-10T13:04:24.070Z,2.12
2019-03-10T13:06:55.330Z,2.35
2019-03-10T13:09:23.797Z,2.98
2019-03-10T13:11:52.259Z,3.00
2019-03-10T13:14:20.771Z,2.67
2019-03-10T13:16:49.241Z,2.50
2019-03-10T13:19:17.736Z,2.65
2019-03-10T13:21:46.349Z,2.87
2019-03-10T13:24:15.011Z,2.77
2019-03-10T13:26:47.498Z,2.95
2019-03-10T13:29:17.977Z,2.80
2019-03-10T13:31:46.459Z,2.95
2019-03-10T13:34:14.941Z,2.25
2019-03-10T13:36:46.379Z,1.20
2019-03-10T13:39:16.511Z,2.42
2019-03-10T13:41:44.972Z,2.22
2019-03-10T13:44:13.452Z,2.08
2019-03-10T13:46:43.881Z,1.92
2019-03-10T13:49:12.212Z,5.05
2019-03-10T13:51:41.142Z,2.00
2019-03-10T13:54:51.360Z,2.62
2019-03-10T13:57:20.582Z,13.35
2019-03-10T13:59:49.053Z,6.78
2019-03-10T14:02:17.645Z,4.15
2019-03-10T14:04:47.772Z,1.92
2019-03-10T14:07:16.297Z,1.70
2019-03-10T14:09:44.797Z,2.70
2019-03-10T14:12:13.267Z,2.58
2019-03-10T14:14:41.837Z,2.67
2019-03-10T14:17:14.718Z,2.30
2019-03-10T14:19:51.004Z,1.52
2019-03-10T14:22:19.285Z,2.12
2019-03-10T14:24:48.892Z,1.87
2019-03-10T14:27:17.435Z,1.90
2019-03-10T14:29:45.992Z,2.15
2019-03-10T14:32:14.778Z,1.98
2019-03-10T14:34:43.318Z,2.72
2019-03-10T14:37:11.795Z,2.33
2019-03-10T14:42:38.788Z,2.10
2019-03-10T14:45:15.220Z,2.30
2019-03-10T14:47:48.409Z,10.30
2019-03-10T14:50:20.272Z,28.10
2019-03-10T14:52:51.101Z,1.62
2019-03-10T14:55:21.214Z,1.20
2019-03-10T14:57:49.869Z,1.10
2019-03-10T15:00:28.831Z,1.40
2019-03-10T15:02:57.535Z,3.50
2019-03-10T15:05:26.135Z,2.83
2019-03-10T15:07:54.694Z,2.10
2019-03-10T15:10:23.381Z,4.78
2019-03-10T15:12:51.856Z,2.85
2019-03-10T15:15:23.013Z,2.10
2019-03-10T15:17:51.562Z,1.80
2019-03-10T15:20:21.565Z,1.87
2019-03-10T15:22:50.409Z,1.90
2019-03-10T15:25:21.072Z,2.98
2019-03-10T15:27:49.699Z,9.28
2019-03-10T15:30:26.287Z,2.37
2019-03-10T15:32:55.021Z,1.95
2019-03-10T15:35:25.388Z,2.30
2019-03-10T15:37:54.029Z,1.67
2019-03-10T15:40:25.468Z,2.40
2019-03-10T15:42:53.921Z,2.55
2019-03-10T15:45:22.579Z,2.40
2019-03-10T15:47:51.108Z,2.45
2019-03-10T15:50:22.660Z,2.40
2019-03-10T15:52:51.188Z,2.90
2019-03-10T15:55:19.895Z,2.45
2019-03-10T15:57:51.369Z,2.77
2019-03-10T16:00:24.428Z,3.02
2019-03-10T16:02:54.787Z,4.45
2019-03-10T16:05:23.449Z,2.45
2019-03-10T16:07:53.835Z,2.45
2019-03-10T16:10:22.627Z,2.77
2019-03-10T16:12:51.101Z,2.85
2019-03-10T16:15:30.147Z,2.45
2019-03-10T16:17:58.741Z,3.05
2019-03-10T16:20:27.294Z,2.83
2019-03-10T16:22:58.906Z,3.60
2019-03-10T16:25:37.947Z,8.80
2019-03-10T16:28:05.989Z,7.92
2019-03-10T16:30:37.068Z,5.05
2019-03-10T16:33:07.936Z,4.60
2019-03-10T16:35:36.442Z,3.42
2019-03-10T16:38:05.098Z,3.12
2019-03-10T16:40:34.782Z,2.58
2019-03-10T16:43:06.740Z,9.78
2019-03-10T16:45:37.157Z,5.17
2019-03-10T16:48:05.726Z,5.30
2019-03-10T16:50:34.287Z,5.85
2019-03-10T16:53:02.776Z,15.45
2019-03-10T16:55:31.348Z,9.60
2019-03-10T16:57:59.832Z,4.60
2019-03-10T17:00:28.396Z,5.50
2019-03-10T17:02:57.749Z,6.10
2019-03-10T17:05:27.912Z,14.33
2019-03-10T17:07:56.460Z,16.07
2019-03-10T17:10:28.169Z,10.40
2019-03-10T17:12:56.802Z,9.43
2019-03-10T17:15:26.017Z,9.68
2019-03-10T17:17:57.394Z,15.68
2019-03-10T17:20:27.388Z,36.30
2019-03-10T17:22:55.895Z,21.15
2019-03-10T17:25:24.498Z,22.42
2019-03-10T17:27:57.663Z,16.52
2019-03-10T17:30:29.695Z,11.65
2019-03-10T17:32:58.258Z,5.47
2019-03-10T17:35:26.813Z,4.97
2019-03-10T17:37:55.764Z,6.15
2019-03-10T17:40:26.299Z,5.42
2019-03-10T17:42:54.840Z,4.47
2019-03-10T17:45:24.549Z,5.30
2019-03-10T17:47:53.386Z,4.97
2019-03-10T17:50:22.011Z,5.22
2019-03-10T17:52:51.207Z,5.30
2019-03-10T17:55:20.956Z,5.62
2019-03-10T17:57:49.565Z,8.10
2019-03-10T18:00:26.586Z,5.28
2019-03-10T18:02:55.166Z,6.58
2019-03-10T18:05:28.735Z,5.40
2019-03-10T18:07:57.219Z,6.58
2019-03-10T18:10:25.699Z,6.78
2019-03-10T18:12:57.500Z,5.30
2019-03-10T18:15:26.435Z,4.50
2019-03-10T18:17:56.521Z,5.15
2019-03-10T18:20:26.890Z,4.97
2019-03-10T18:22:55.516Z,4.78
2019-03-10T18:25:25.798Z,5.10
2019-03-10T18:27:54.277Z,4.83
2019-03-10T18:30:25.037Z,6.42
2019-03-10T18:32:53.596Z,6.47
2019-03-10T18:35:24.117Z,4.40
2019-03-10T18:37:54.044Z,4.40
2019-03-10T18:40:26.660Z,4.33
2019-03-10T18:42:55.305Z,7.80
2019-03-10T18:45:27.166Z,5.22
2019-03-10T18:47:55.655Z,4.78
2019-03-10T18:50:28.186Z,5.80
2019-03-10T18:52:59.136Z,5.90
2019-03-10T18:55:27.681Z,4.83
2019-03-10T18:57:56.312Z,7.05
2019-03-10T19:00:26.152Z,5.70
2019-03-10T19:02:59.307Z,6.17
2019-03-10T19:05:25.291Z,4.30
2019-03-10T19:07:56.327Z,3.75
2019-03-10T19:10:26.179Z,6.70
2019-03-10T19:12:55.081Z,7.58
2019-03-10T19:15:27.841Z,5.05
2019-03-10T19:17:58.197Z,7.30
2019-03-10T19:20:27.284Z,5.40
2019-03-10T19:23:00.826Z,5.12
2019-03-10T19:25:32.454Z,5.03
2019-03-10T19:28:01.137Z,4.47
2019-03-10T19:30:29.894Z,4.17
2019-03-10T19:33:02.080Z,6.15
2019-03-10T19:35:30.587Z,5.03
2019-03-10T19:37:59.226Z,3.58
2019-03-10T19:40:27.815Z,3.58
2019-03-10T19:42:56.564Z,3.02
2019-03-10T19:45:26.801Z,3.40
2019-03-10T19:47:55.631Z,3.65
2019-03-10T19:50:28.234Z,3.60
2019-03-10T19:52:57.608Z,2.92
2019-03-10T19:55:26.538Z,2.72
2019-03-10T19:57:56.557Z,2.33
2019-03-10T20:00:26.367Z,1.95
2019-03-10T20:02:54.891Z,2.90
2019-03-10T20:05:28.569Z,3.22
2019-03-10T20:07:59.666Z,2.83
2019-03-10T20:10:31.198Z,2.72
2019-03-10T20:13:01.317Z,2.55
2019-03-10T20:15:29.886Z,2.55
2019-03-10T20:18:09.003Z,2.80
2019-03-10T20:20:42.837Z,2.58
2019-03-10T20:23:11.392Z,2.33
2019-03-10T20:25:41.598Z,3.10
2019-03-10T20:28:10.241Z,2.10
2019-03-10T20:30:40.316Z,3.30
2019-03-10T20:33:10.801Z,2.52
2019-03-10T20:35:39.518Z,2.42
2019-03-10T20:38:10.819Z,2.77
2019-03-10T20:40:39.333Z,13.10
2019-03-10T20:43:10.531Z,4.80
2019-03-10T20:45:39.093Z,3.20
2019-03-10T20:48:07.677Z,2.80
2019-03-10T20:50:38.094Z,3.33
2019-03-10T20:53:06.662Z,2.90
2019-03-10T20:55:35.318Z,2.87
2019-03-10T20:58:03.821Z,3.30
2019-03-10T21:00:32.375Z,2.80
2019-03-10T21:03:01.058Z,2.62
2019-03-10T21:06:12.235Z,2.95
2019-03-10T21:08:40.755Z,3.00
2019-03-10T21:11:15.149Z,2.25
2019-03-10T21:13:43.736Z,2.40
2019-03-10T21:16:12.330Z,3.10
2019-03-10T21:18:40.920Z,3.20
2019-03-10T21:21:09.387Z,3.10
2019-03-10T21:23:38.252Z,2.92
2019-03-10T21:26:08.437Z,4.33
2019-03-10T21:28:36.960Z,3.50
2019-03-10T21:31:05.437Z,3.05
2019-03-10T21:33:33.942Z,3.02
2019-03-10T21:36:02.396Z,3.10
2019-03-10T21:38:31.023Z,3.80
2019-03-10T21:40:59.769Z,3.52
2019-03-10T21:43:28.500Z,4.45
2019-03-10T21:45:58.569Z,8.53
2019-03-10T21:48:29.581Z,10.05
2019-03-10T21:50:58.260Z,9.80
2019-03-10T21:53:26.747Z,9.50
2019-03-10T21:55:55.248Z,8.08
2019-03-10T21:58:27.836Z,9.10
2019-03-10T22:00:56.315Z,9.28
2019-03-10T22:03:24.793Z,9.28
2019-03-10T22:05:56.031Z,9.58
2019-03-10T22:08:24.495Z,9.05
2019-03-10T22:10:55.961Z,8.80
2019-03-10T22:13:27.344Z,8.58
2019-03-10T22:15:55.846Z,8.13
2019-03-10T22:18:27.732Z,7.33
2019-03-10T22:20:57.161Z,7.47
2019-03-10T22:23:27.394Z,6.37
2019-03-10T22:25:55.956Z,6.50
2019-03-10T22:28:24.550Z,6.37
2019-03-10T22:30:57.918Z,5.75
2019-03-10T22:33:26.463Z,5.95
2019-03-10T22:35:56.921Z,6.47
2019-03-10T22:38:26.248Z,7.40
2019-03-10T22:40:57.320Z,7.37
2019-03-10T22:43:25.845Z,8.30
2019-03-10T22:45:58.920Z,9.03
2019-03-10T22:48:28.924Z,8.78
2019-03-10T22:50:57.514Z,8.83
2019-03-10T22:53:26.412Z,9.78
2019-03-10T22:55:55.892Z,9.88
2019-03-10T22:58:27.342Z,9.65
2019-03-10T23:00:58.604Z,8.68
2019-03-10T23:03:28.200Z,8.53
2019-03-10T23:05:56.764Z,9.05
2019-03-10T23:08:25.344Z,8.50
2019-03-10T23:10:53.820Z,8.33
2019-03-10T23:13:24.034Z,7.83
2019-03-10T23:15:52.512Z,7.20
2019-03-10T23:18:20.996Z,6.78
2019-03-10T23:20:49.519Z,6.22
2019-03-10T23:23:18.323Z,6.10
2019-03-10T23:25:49.544Z,4.80
2019-03-10T23:28:18.190Z,5.03
2019-03-10T23:30:46.654Z,6.20
2019-03-10T23:33:15.149Z,6.55
2019-03-10T23:35:43.655Z,6.92
2019-03-10T23:38:12.359Z,7.37
2019-03-10T23:40:40.847Z,7.95
2019-03-10T23:43:10.727Z,7.55
2019-03-10T23:45:39.882Z,7.90
2019-03-10T23:48:08.380Z,7.55
2019-03-10T23:50:36.970Z,7.75
2019-03-10T23:53:05.777Z,7.20
2019-03-10T23:55:34.405Z,6.78
2019-03-10T23:58:04.405Z,6.35
